sensor_id;sensor_type;location;lat;lon;timestamp;P1;durP1;ratioP1;P2;durP2;ratioP2
7029;SDS011;3556;53.500;10.176;2023-04-25T00:02:03;5.53;;;5.00;;
7029;SDS011;3556;53.500;10.176;2023-04-25T00:04:28;5.30;;;4.90;;
7029;SDS011;3556;53.500;10.176;2023-04-25T00:06:54;6.70;;;5.23;;
7029;SDS011;3556;53.500;10.176;2023-04-25T00:09:21;6.20;;;5.00;;
7029;SDS011;3556;53.500;10.176;2023-04-25T00:11:47;5.87;;;5.30;;
7029;SDS011;3556;53.500;10.176;2023-04-25T00:14:13;5.90;;;5.47;;
7029;SDS011;3556;53.500;10.176;2023-04-25T00:16:39;6.67;;;5.20;;
7029;SDS011;3556;53.500;10.176;2023-04-25T00:19:06;5.63;;;4.73;;
7029;SDS011;3556;53.500;10.176;2023-04-25T00:21:32;8.20;;;5.13;;
7029;SDS011;3556;53.500;10.176;2023-04-25T00:23:58;6.50;;;5.23;;
7029;SDS011;3556;53.500;10.176;2023-04-25T00:26:25;6.20;;;5.67;;
7029;SDS011;3556;53.500;10.176;2023-04-25T00:28:52;6.10;;;5.47;;
7029;SDS011;3556;53.500;10.176;2023-04-25T00:31:18;7.83;;;5.80;;
7029;SDS011;3556;53.500;10.176;2023-04-25T00:33:43;7.23;;;5.50;;
7029;SDS011;3556;53.500;10.176;2023-04-25T00:36:09;7.10;;;5.30;;
7029;SDS011;3556;53.500;10.176;2023-04-25T00:38:35;10.83;;;6.20;;
7029;SDS011;3556;53.500;10.176;2023-04-25T00:41:00;9.40;;;5.70;;
7029;SDS011;3556;53.500;10.176;2023-04-25T00:43:26;15.47;;;6.13;;
7029;SDS011;3556;53.500;10.176;2023-04-25T00:45:55;18.10;;;5.87;;
7029;SDS011;3556;53.500;10.176;2023-04-25T00:48:22;11.47;;;4.63;;
7029;SDS011;3556;53.500;10.176;2023-04-25T00:50:55;18.33;;;5.43;;
7029;SDS011;3556;53.500;10.176;2023-04-25T00:53:24;25.33;;;5.83;;
7029;SDS011;3556;53.500;10.176;2023-04-25T00:55:50;16.50;;;4.93;;
7029;SDS011;3556;53.500;10.176;2023-04-25T00:58:17;23.97;;;5.60;;
7029;SDS011;3556;53.500;10.176;2023-04-25T01:00:44;27.43;;;5.53;;
7029;SDS011;3556;53.500;10.176;2023-04-25T01:03:11;19.27;;;5.00;;
7029;SDS011;3556;53.500;10.176;2023-04-25T01:05:41;16.60;;;4.37;;
7029;SDS011;3556;53.500;10.176;2023-04-25T01:08:07;25.13;;;5.47;;
7029;SDS011;3556;53.500;10.176;2023-04-25T01:10:33;18.87;;;4.83;;
7029;SDS011;3556;53.500;10.176;2023-04-25T01:12:59;14.97;;;4.40;;
7029;SDS011;3556;53.500;10.176;2023-04-25T01:15:25;22.13;;;4.70;;
7029;SDS011;3556;53.500;10.176;2023-04-25T01:17:50;18.13;;;4.83;;
7029;SDS011;3556;53.500;10.176;2023-04-25T01:20:18;32.53;;;5.10;;
7029;SDS011;3556;53.500;10.176;2023-04-25T01:22:47;24.10;;;6.17;;
7029;SDS011;3556;53.500;10.176;2023-04-25T01:25:14;35.67;;;4.80;;
7029;SDS011;3556;53.500;10.176;2023-04-25T01:27:40;12.80;;;4.77;;
7029;SDS011;3556;53.500;10.176;2023-04-25T01:33:27;30.40;;;5.53;;
7029;SDS011;3556;53.500;10.176;2023-04-25T01:35:54;29.10;;;5.10;;
7029;SDS011;3556;53.500;10.176;2023-04-25T01:38:20;27.80;;;4.93;;
7029;SDS011;3556;53.500;10.176;2023-04-25T01:40:45;23.77;;;5.07;;
7029;SDS011;3556;53.500;10.176;2023-04-25T01:43:12;35.77;;;5.80;;
7029;SDS011;3556;53.500;10.176;2023-04-25T01:45:39;33.23;;;5.47;;
7029;SDS011;3556;53.500;10.176;2023-04-25T01:48:06;29.10;;;5.37;;
7029;SDS011;3556;53.500;10.176;2023-04-25T01:50:37;18.87;;;4.80;;
7029;SDS011;3556;53.500;10.176;2023-04-25T01:53:03;32.90;;;5.40;;
7029;SDS011;3556;53.500;10.176;2023-04-25T01:55:29;20.57;;;5.50;;
7029;SDS011;3556;53.500;10.176;2023-04-25T01:57:55;34.63;;;5.30;;
7029;SDS011;3556;53.500;10.176;2023-04-25T02:00:21;30.67;;;5.80;;
7029;SDS011;3556;53.500;10.176;2023-04-25T02:02:47;22.10;;;5.03;;
7029;SDS011;3556;53.500;10.176;2023-04-25T02:05:13;26.17;;;5.40;;
7029;SDS011;3556;53.500;10.176;2023-04-25T02:07:39;29.93;;;5.50;;
7029;SDS011;3556;53.500;10.176;2023-04-25T02:13:26;21.93;;;4.97;;
7029;SDS011;3556;53.500;10.176;2023-04-25T02:15:52;24.13;;;4.77;;
7029;SDS011;3556;53.500;10.176;2023-04-25T02:18:18;26.60;;;5.40;;
7029;SDS011;3556;53.500;10.176;2023-04-25T02:20:44;36.27;;;5.47;;
7029;SDS011;3556;53.500;10.176;2023-04-25T02:23:10;23.63;;;4.37;;
7029;SDS011;3556;53.500;10.176;2023-04-25T02:25:36;23.50;;;5.00;;
7029;SDS011;3556;53.500;10.176;2023-04-25T02:28:02;32.27;;;4.90;;
7029;SDS011;3556;53.500;10.176;2023-04-25T02:30:27;25.70;;;5.30;;
7029;SDS011;3556;53.500;10.176;2023-04-25T02:32:53;34.03;;;4.80;;
7029;SDS011;3556;53.500;10.176;2023-04-25T02:35:19;23.87;;;5.10;;
7029;SDS011;3556;53.500;10.176;2023-04-25T02:37:44;22.13;;;5.03;;
7029;SDS011;3556;53.500;10.176;2023-04-25T02:40:10;32.67;;;5.20;;
7029;SDS011;3556;53.500;10.176;2023-04-25T02:42:36;21.97;;;4.83;;
7029;SDS011;3556;53.500;10.176;2023-04-25T02:45:02;27.83;;;5.40;;
7029;SDS011;3556;53.500;10.176;2023-04-25T02:47:28;34.47;;;5.50;;
7029;SDS011;3556;53.500;10.176;2023-04-25T02:49:54;32.37;;;4.93;;
7029;SDS011;3556;53.500;10.176;2023-04-25T02:52:19;24.70;;;5.27;;
7029;SDS011;3556;53.500;10.176;2023-04-25T02:54:46;28.20;;;5.43;;
7029;SDS011;3556;53.500;10.176;2023-04-25T02:57:11;30.67;;;5.00;;
7029;SDS011;3556;53.500;10.176;2023-04-25T02:59:37;28.73;;;5.20;;
7029;SDS011;3556;53.500;10.176;2023-04-25T03:02:03;21.83;;;4.40;;
7029;SDS011;3556;53.500;10.176;2023-04-25T03:04:28;23.13;;;4.33;;
7029;SDS011;3556;53.500;10.176;2023-04-25T03:06:54;24.20;;;4.10;;
7029;SDS011;3556;53.500;10.176;2023-04-25T03:09:20;21.13;;;4.40;;
7029;SDS011;3556;53.500;10.176;2023-04-25T03:11:45;18.83;;;4.87;;
7029;SDS011;3556;53.500;10.176;2023-04-25T03:14:51;23.40;;;4.50;;
7029;SDS011;3556;53.500;10.176;2023-04-25T03:22:03;17.20;;;4.60;;
7029;SDS011;3556;53.500;10.176;2023-04-25T03:25:31;30.93;;;5.20;;
7029;SDS011;3556;53.500;10.176;2023-04-25T03:32:50;23.97;;;4.50;;
7029;SDS011;3556;53.500;10.176;2023-04-25T03:43:00;17.63;;;4.53;;
7029;SDS011;3556;53.500;10.176;2023-04-25T03:46:35;31.47;;;4.70;;
7029;SDS011;3556;53.500;10.176;2023-04-25T03:49:01;31.33;;;4.77;;
7029;SDS011;3556;53.500;10.176;2023-04-25T03:51:26;19.77;;;4.60;;
7029;SDS011;3556;53.500;10.176;2023-04-25T03:53:52;33.90;;;4.27;;
7029;SDS011;3556;53.500;10.176;2023-04-25T03:56:18;16.33;;;3.80;;
7029;SDS011;3556;53.500;10.176;2023-04-25T03:58:43;19.17;;;4.53;;
7029;SDS011;3556;53.500;10.176;2023-04-25T04:01:09;19.10;;;4.13;;
7029;SDS011;3556;53.500;10.176;2023-04-25T04:03:36;28.33;;;4.97;;
7029;SDS011;3556;53.500;10.176;2023-04-25T04:06:02;20.23;;;3.97;;
7029;SDS011;3556;53.500;10.176;2023-04-25T04:08:30;19.17;;;4.57;;
7029;SDS011;3556;53.500;10.176;2023-04-25T04:10:59;18.00;;;4.50;;
7029;SDS011;3556;53.500;10.176;2023-04-25T04:13:28;26.63;;;5.13;;
7029;SDS011;3556;53.500;10.176;2023-04-25T04:15:54;21.83;;;4.20;;
7029;SDS011;3556;53.500;10.176;2023-04-25T04:18:20;23.20;;;4.00;;
7029;SDS011;3556;53.500;10.176;2023-04-25T04:20:46;19.93;;;3.80;;
7029;SDS011;3556;53.500;10.176;2023-04-25T04:23:12;19.60;;;5.47;;
7029;SDS011;3556;53.500;10.176;2023-04-25T04:25:38;17.50;;;4.60;;
7029;SDS011;3556;53.500;10.176;2023-04-25T04:28:04;24.57;;;4.00;;
7029;SDS011;3556;53.500;10.176;2023-04-25T04:30:31;17.17;;;4.20;;
7029;SDS011;3556;53.500;10.176;2023-04-25T04:32:58;15.63;;;3.77;;
7029;SDS011;3556;53.500;10.176;2023-04-25T04:35:25;39.77;;;4.33;;
7029;SDS011;3556;53.500;10.176;2023-04-25T04:37:51;21.70;;;4.57;;
7029;SDS011;3556;53.500;10.176;2023-04-25T04:40:17;19.10;;;4.07;;
7029;SDS011;3556;53.500;10.176;2023-04-25T04:42:44;13.43;;;3.67;;
7029;SDS011;3556;53.500;10.176;2023-04-25T04:45:13;18.20;;;3.33;;
7029;SDS011;3556;53.500;10.176;2023-04-25T04:47:39;23.00;;;3.77;;
7029;SDS011;3556;53.500;10.176;2023-04-25T04:50:08;18.10;;;4.20;;
7029;SDS011;3556;53.500;10.176;2023-04-25T04:52:35;18.43;;;3.60;;
7029;SDS011;3556;53.500;10.176;2023-04-25T04:55:02;22.83;;;4.00;;
7029;SDS011;3556;53.500;10.176;2023-04-25T04:57:29;19.07;;;4.13;;
7029;SDS011;3556;53.500;10.176;2023-04-25T04:59:55;16.20;;;4.40;;
7029;SDS011;3556;53.500;10.176;2023-04-25T05:02:21;11.60;;;3.53;;
7029;SDS011;3556;53.500;10.176;2023-04-25T05:04:47;18.83;;;3.87;;
7029;SDS011;3556;53.500;10.176;2023-04-25T05:07:12;24.77;;;4.53;;
7029;SDS011;3556;53.500;10.176;2023-04-25T05:09:38;14.07;;;3.33;;
7029;SDS011;3556;53.500;10.176;2023-04-25T05:12:04;31.23;;;4.23;;
7029;SDS011;3556;53.500;10.176;2023-04-25T05:14:30;21.07;;;4.43;;
7029;SDS011;3556;53.500;10.176;2023-04-25T05:16:56;17.70;;;3.33;;
7029;SDS011;3556;53.500;10.176;2023-04-25T05:19:21;17.37;;;3.60;;
7029;SDS011;3556;53.500;10.176;2023-04-25T05:21:48;14.83;;;3.37;;
7029;SDS011;3556;53.500;10.176;2023-04-25T05:24:14;16.03;;;4.13;;
7029;SDS011;3556;53.500;10.176;2023-04-25T05:26:40;15.10;;;3.90;;
7029;SDS011;3556;53.500;10.176;2023-04-25T05:29:05;20.10;;;3.80;;
7029;SDS011;3556;53.500;10.176;2023-04-25T05:31:31;14.63;;;3.80;;
7029;SDS011;3556;53.500;10.176;2023-04-25T05:33:57;10.47;;;2.87;;
7029;SDS011;3556;53.500;10.176;2023-04-25T05:36:23;23.53;;;3.60;;
7029;SDS011;3556;53.500;10.176;2023-04-25T05:38:48;24.13;;;4.13;;
7029;SDS011;3556;53.500;10.176;2023-04-25T05:41:14;22.27;;;3.83;;
7029;SDS011;3556;53.500;10.176;2023-04-25T05:43:40;18.27;;;3.73;;
7029;SDS011;3556;53.500;10.176;2023-04-25T05:46:10;17.67;;;3.80;;
7029;SDS011;3556;53.500;10.176;2023-04-25T05:48:36;25.97;;;4.53;;
7029;SDS011;3556;53.500;10.176;2023-04-25T05:51:02;19.10;;;3.80;;
7029;SDS011;3556;53.500;10.176;2023-04-25T05:53:28;16.47;;;3.47;;
7029;SDS011;3556;53.500;10.176;2023-04-25T05:55:53;14.43;;;3.30;;
7029;SDS011;3556;53.500;10.176;2023-04-25T05:58:19;23.20;;;3.60;;
7029;SDS011;3556;53.500;10.176;2023-04-25T06:00:45;14.43;;;3.60;;
7029;SDS011;3556;53.500;10.176;2023-04-25T06:03:11;13.73;;;3.30;;
7029;SDS011;3556;53.500;10.176;2023-04-25T06:05:39;20.97;;;3.70;;
7029;SDS011;3556;53.500;10.176;2023-04-25T06:08:06;24.50;;;3.93;;
7029;SDS011;3556;53.500;10.176;2023-04-25T06:10:32;12.83;;;3.70;;
7029;SDS011;3556;53.500;10.176;2023-04-25T06:12:57;20.47;;;3.57;;
7029;SDS011;3556;53.500;10.176;2023-04-25T06:15:23;15.30;;;3.50;;
7029;SDS011;3556;53.500;10.176;2023-04-25T06:17:48;19.03;;;3.87;;
7029;SDS011;3556;53.500;10.176;2023-04-25T06:20:14;13.60;;;4.00;;
7029;SDS011;3556;53.500;10.176;2023-04-25T06:22:40;24.43;;;3.80;;
7029;SDS011;3556;53.500;10.176;2023-04-25T06:25:06;11.17;;;3.80;;
7029;SDS011;3556;53.500;10.176;2023-04-25T06:27:32;23.47;;;3.40;;
7029;SDS011;3556;53.500;10.176;2023-04-25T06:29:58;13.07;;;3.57;;
7029;SDS011;3556;53.500;10.176;2023-04-25T06:32:24;13.90;;;3.70;;
7029;SDS011;3556;53.500;10.176;2023-04-25T06:34:51;15.00;;;3.80;;
7029;SDS011;3556;53.500;10.176;2023-04-25T06:37:16;14.70;;;3.50;;
7029;SDS011;3556;53.500;10.176;2023-04-25T06:39:42;18.70;;;4.07;;
7029;SDS011;3556;53.500;10.176;2023-04-25T06:42:08;16.57;;;3.63;;
7029;SDS011;3556;53.500;10.176;2023-04-25T06:44:33;18.23;;;3.70;;
7029;SDS011;3556;53.500;10.176;2023-04-25T06:46:59;9.57;;;2.77;;
7029;SDS011;3556;53.500;10.176;2023-04-25T06:49:25;17.27;;;3.20;;
7029;SDS011;3556;53.500;10.176;2023-04-25T06:51:50;14.90;;;3.13;;
7029;SDS011;3556;53.500;10.176;2023-04-25T06:54:16;15.40;;;2.80;;
7029;SDS011;3556;53.500;10.176;2023-04-25T06:56:42;11.37;;;3.37;;
7029;SDS011;3556;53.500;10.176;2023-04-25T06:59:08;15.50;;;3.60;;
7029;SDS011;3556;53.500;10.176;2023-04-25T07:01:34;17.07;;;3.43;;
7029;SDS011;3556;53.500;10.176;2023-04-25T07:04:00;16.97;;;3.43;;
7029;SDS011;3556;53.500;10.176;2023-04-25T07:06:26;11.93;;;2.90;;
7029;SDS011;3556;53.500;10.176;2023-04-25T07:08:52;9.40;;;2.93;;
7029;SDS011;3556;53.500;10.176;2023-04-25T07:11:18;13.70;;;2.77;;
7029;SDS011;3556;53.500;10.176;2023-04-25T07:13:44;9.27;;;3.30;;
7029;SDS011;3556;53.500;10.176;2023-04-25T07:16:10;15.30;;;3.43;;
7029;SDS011;3556;53.500;10.176;2023-04-25T07:18:35;16.70;;;3.07;;
7029;SDS011;3556;53.500;10.176;2023-04-25T07:21:01;11.10;;;2.63;;
7029;SDS011;3556;53.500;10.176;2023-04-25T07:23:27;13.20;;;3.00;;
7029;SDS011;3556;53.500;10.176;2023-04-25T07:25:52;17.17;;;3.70;;
7029;SDS011;3556;53.500;10.176;2023-04-25T07:28:18;8.17;;;3.17;;
7029;SDS011;3556;53.500;10.176;2023-04-25T07:30:44;6.30;;;2.80;;
7029;SDS011;3556;53.500;10.176;2023-04-25T07:33:09;13.70;;;3.27;;
7029;SDS011;3556;53.500;10.176;2023-04-25T07:35:35;18.00;;;3.13;;
7029;SDS011;3556;53.500;10.176;2023-04-25T07:38:01;11.77;;;2.83;;
7029;SDS011;3556;53.500;10.176;2023-04-25T07:40:28;17.70;;;3.27;;
7029;SDS011;3556;53.500;10.176;2023-04-25T07:42:53;7.33;;;2.27;;
7029;SDS011;3556;53.500;10.176;2023-04-25T07:45:19;13.70;;;2.90;;
7029;SDS011;3556;53.500;10.176;2023-04-25T07:47:45;15.37;;;3.27;;
7029;SDS011;3556;53.500;10.176;2023-04-25T07:50:10;12.73;;;2.87;;
7029;SDS011;3556;53.500;10.176;2023-04-25T07:52:36;9.13;;;2.80;;
7029;SDS011;3556;53.500;10.176;2023-04-25T07:55:02;9.63;;;2.80;;
7029;SDS011;3556;53.500;10.176;2023-04-25T07:57:28;10.63;;;2.70;;
7029;SDS011;3556;53.500;10.176;2023-04-25T07:59:54;7.23;;;2.93;;
7029;SDS011;3556;53.500;10.176;2023-04-25T08:02:20;12.67;;;2.53;;
7029;SDS011;3556;53.500;10.176;2023-04-25T08:04:45;14.00;;;2.60;;
7029;SDS011;3556;53.500;10.176;2023-04-25T08:07:11;17.37;;;2.93;;
7029;SDS011;3556;53.500;10.176;2023-04-25T08:09:37;22.10;;;2.90;;
7029;SDS011;3556;53.500;10.176;2023-04-25T08:12:03;8.20;;;2.70;;
7029;SDS011;3556;53.500;10.176;2023-04-25T08:14:29;12.43;;;2.40;;
7029;SDS011;3556;53.500;10.176;2023-04-25T08:17:00;18.73;;;2.90;;
7029;SDS011;3556;53.500;10.176;2023-04-25T08:19:26;10.53;;;2.30;;
7029;SDS011;3556;53.500;10.176;2023-04-25T08:21:52;15.97;;;3.00;;
7029;SDS011;3556;53.500;10.176;2023-04-25T08:24:18;9.20;;;2.70;;
7029;SDS011;3556;53.500;10.176;2023-04-25T08:26:43;9.77;;;2.73;;
7029;SDS011;3556;53.500;10.176;2023-04-25T08:29:09;4.73;;;2.20;;
7029;SDS011;3556;53.500;10.176;2023-04-25T08:31:34;8.00;;;2.13;;
7029;SDS011;3556;53.500;10.176;2023-04-25T08:34:00;5.33;;;2.03;;
7029;SDS011;3556;53.500;10.176;2023-04-25T08:36:26;7.53;;;2.20;;
7029;SDS011;3556;53.500;10.176;2023-04-25T08:38:53;7.83;;;2.30;;
7029;SDS011;3556;53.500;10.176;2023-04-25T08:41:18;8.67;;;2.20;;
7029;SDS011;3556;53.500;10.176;2023-04-25T08:43:46;11.73;;;2.30;;
7029;SDS011;3556;53.500;10.176;2023-04-25T08:46:13;8.83;;;2.03;;
7029;SDS011;3556;53.500;10.176;2023-04-25T08:48:43;10.13;;;2.43;;
7029;SDS011;3556;53.500;10.176;2023-04-25T08:51:10;13.50;;;2.87;;
7029;SDS011;3556;53.500;10.176;2023-04-25T08:53:46;10.33;;;2.20;;
7029;SDS011;3556;53.500;10.176;2023-04-25T08:56:15;7.33;;;1.70;;
7029;SDS011;3556;53.500;10.176;2023-04-25T08:58:43;6.93;;;1.87;;
7029;SDS011;3556;53.500;10.176;2023-04-25T09:01:11;11.67;;;1.80;;
7029;SDS011;3556;53.500;10.176;2023-04-25T09:03:36;7.47;;;1.80;;
7029;SDS011;3556;53.500;10.176;2023-04-25T09:06:03;4.03;;;1.80;;
7029;SDS011;3556;53.500;10.176;2023-04-25T09:08:29;3.53;;;1.90;;
7029;SDS011;3556;53.500;10.176;2023-04-25T09:10:55;3.60;;;2.10;;
7029;SDS011;3556;53.500;10.176;2023-04-25T09:13:25;10.83;;;1.97;;
7029;SDS011;3556;53.500;10.176;2023-04-25T09:15:52;7.97;;;1.97;;
7029;SDS011;3556;53.500;10.176;2023-04-25T09:18:26;9.50;;;2.00;;
7029;SDS011;3556;53.500;10.176;2023-04-25T09:20:54;4.97;;;2.00;;
7029;SDS011;3556;53.500;10.176;2023-04-25T09:23:21;7.20;;;2.20;;
7029;SDS011;3556;53.500;10.176;2023-04-25T09:25:51;6.73;;;1.63;;
7029;SDS011;3556;53.500;10.176;2023-04-25T09:28:24;7.17;;;1.20;;
7029;SDS011;3556;53.500;10.176;2023-04-25T09:30:54;6.60;;;1.80;;
7029;SDS011;3556;53.500;10.176;2023-04-25T09:33:30;4.40;;;1.53;;
7029;SDS011;3556;53.500;10.176;2023-04-25T09:36:07;3.23;;;1.60;;
7029;SDS011;3556;53.500;10.176;2023-04-25T09:38:54;7.93;;;2.00;;
7029;SDS011;3556;53.500;10.176;2023-04-25T09:41:24;6.73;;;1.93;;
7029;SDS011;3556;53.500;10.176;2023-04-25T09:43:50;4.63;;;1.33;;
7029;SDS011;3556;53.500;10.176;2023-04-25T09:46:16;3.10;;;1.50;;
7029;SDS011;3556;53.500;10.176;2023-04-25T09:48:52;4.47;;;1.60;;
7029;SDS011;3556;53.500;10.176;2023-04-25T09:51:18;7.10;;;1.97;;
7029;SDS011;3556;53.500;10.176;2023-04-25T09:53:45;3.10;;;1.50;;
7029;SDS011;3556;53.500;10.176;2023-04-25T09:56:15;10.50;;;2.10;;
7029;SDS011;3556;53.500;10.176;2023-04-25T09:58:41;12.77;;;2.40;;
7029;SDS011;3556;53.500;10.176;2023-04-25T10:01:07;6.23;;;2.00;;
7029;SDS011;3556;53.500;10.176;2023-04-25T10:03:37;7.70;;;2.17;;
7029;SDS011;3556;53.500;10.176;2023-04-25T10:06:07;6.50;;;2.10;;
7029;SDS011;3556;53.500;10.176;2023-04-25T10:08:44;5.57;;;1.77;;
7029;SDS011;3556;53.500;10.176;2023-04-25T10:11:10;5.17;;;1.90;;
7029;SDS011;3556;53.500;10.176;2023-04-25T10:13:39;5.73;;;2.00;;
7029;SDS011;3556;53.500;10.176;2023-04-25T10:16:06;8.97;;;2.13;;
7029;SDS011;3556;53.500;10.176;2023-04-25T10:18:32;4.30;;;1.47;;
7029;SDS011;3556;53.500;10.176;2023-04-25T10:20:59;8.13;;;1.73;;
7029;SDS011;3556;53.500;10.176;2023-04-25T10:23:26;12.37;;;2.10;;
7029;SDS011;3556;53.500;10.176;2023-04-25T10:25:54;6.87;;;2.00;;
7029;SDS011;3556;53.500;10.176;2023-04-25T10:28:20;4.97;;;1.80;;
7029;SDS011;3556;53.500;10.176;2023-04-25T10:30:59;5.00;;;2.07;;
7029;SDS011;3556;53.500;10.176;2023-04-25T10:33:33;13.50;;;2.30;;
7029;SDS011;3556;53.500;10.176;2023-04-25T10:36:12;7.03;;;1.90;;
7029;SDS011;3556;53.500;10.176;2023-04-25T10:38:40;5.80;;;1.53;;
7029;SDS011;3556;53.500;10.176;2023-04-25T10:41:08;1.40;;;1.30;;
7029;SDS011;3556;53.500;10.176;2023-04-25T10:43:41;2.33;;;1.07;;
7029;SDS011;3556;53.500;10.176;2023-04-25T10:48:52;11.27;;;1.63;;
7029;SDS011;3556;53.500;10.176;2023-04-25T10:51:23;5.13;;;1.50;;
7029;SDS011;3556;53.500;10.176;2023-04-25T10:56:32;4.80;;;1.60;;
7029;SDS011;3556;53.500;10.176;2023-04-25T10:59:17;2.47;;;1.50;;
7029;SDS011;3556;53.500;10.176;2023-04-25T11:01:47;5.27;;;1.73;;
7029;SDS011;3556;53.500;10.176;2023-04-25T11:04:22;3.67;;;1.37;;
7029;SDS011;3556;53.500;10.176;2023-04-25T11:09:39;3.80;;;1.30;;
7029;SDS011;3556;53.500;10.176;2023-04-25T11:12:06;5.73;;;1.97;;
7029;SDS011;3556;53.500;10.176;2023-04-25T11:14:34;8.10;;;1.73;;
7029;SDS011;3556;53.500;10.176;2023-04-25T11:17:00;3.63;;;1.63;;
7029;SDS011;3556;53.500;10.176;2023-04-25T11:19:27;3.10;;;1.60;;
7029;SDS011;3556;53.500;10.176;2023-04-25T11:22:00;10.80;;;2.23;;
7029;SDS011;3556;53.500;10.176;2023-04-25T11:24:30;12.60;;;1.80;;
7029;SDS011;3556;53.500;10.176;2023-04-25T11:27:00;5.90;;;1.93;;
7029;SDS011;3556;53.500;10.176;2023-04-25T11:29:29;9.70;;;2.07;;
7029;SDS011;3556;53.500;10.176;2023-04-25T11:31:56;5.27;;;1.60;;
7029;SDS011;3556;53.500;10.176;2023-04-25T11:34:26;2.80;;;1.63;;
7029;SDS011;3556;53.500;10.176;2023-04-25T11:36:52;7.73;;;1.90;;
7029;SDS011;3556;53.500;10.176;2023-04-25T11:39:21;7.93;;;1.80;;
7029;SDS011;3556;53.500;10.176;2023-04-25T11:41:48;14.33;;;1.90;;
7029;SDS011;3556;53.500;10.176;2023-04-25T11:44:18;6.77;;;1.77;;
7029;SDS011;3556;53.500;10.176;2023-04-25T11:46:45;3.17;;;1.43;;
7029;SDS011;3556;53.500;10.176;2023-04-25T11:49:11;12.67;;;2.17;;
7029;SDS011;3556;53.500;10.176;2023-04-25T11:51:41;8.83;;;1.60;;
7029;SDS011;3556;53.500;10.176;2023-04-25T11:54:12;9.30;;;1.77;;
7029;SDS011;3556;53.500;10.176;2023-04-25T11:56:44;2.10;;;1.43;;
7029;SDS011;3556;53.500;10.176;2023-04-25T11:59:11;1.90;;;1.30;;
7029;SDS011;3556;53.500;10.176;2023-04-25T12:01:38;2.40;;;1.00;;
7029;SDS011;3556;53.500;10.176;2023-04-25T12:04:11;2.93;;;1.20;;
7029;SDS011;3556;53.500;10.176;2023-04-25T12:06:45;2.67;;;1.33;;
7029;SDS011;3556;53.500;10.176;2023-04-25T12:09:12;6.90;;;1.60;;
7029;SDS011;3556;53.500;10.176;2023-04-25T12:11:47;5.40;;;1.87;;
7029;SDS011;3556;53.500;10.176;2023-04-25T12:14:21;2.70;;;1.80;;
7029;SDS011;3556;53.500;10.176;2023-04-25T12:16:52;3.07;;;1.53;;
7029;SDS011;3556;53.500;10.176;2023-04-25T12:19:19;9.07;;;1.67;;
7029;SDS011;3556;53.500;10.176;2023-04-25T12:21:46;12.67;;;1.63;;
7029;SDS011;3556;53.500;10.176;2023-04-25T12:24:13;10.80;;;2.17;;
7029;SDS011;3556;53.500;10.176;2023-04-25T12:26:51;5.27;;;2.33;;
7029;SDS011;3556;53.500;10.176;2023-04-25T12:29:25;4.20;;;1.63;;
7029;SDS011;3556;53.500;10.176;2023-04-25T12:31:52;2.80;;;1.37;;
7029;SDS011;3556;53.500;10.176;2023-04-25T12:34:19;5.17;;;1.83;;
7029;SDS011;3556;53.500;10.176;2023-04-25T12:36:46;3.93;;;1.40;;
7029;SDS011;3556;53.500;10.176;2023-04-25T12:39:16;1.63;;;1.33;;
7029;SDS011;3556;53.500;10.176;2023-04-25T12:41:43;8.93;;;1.30;;
7029;SDS011;3556;53.500;10.176;2023-04-25T12:44:09;4.13;;;1.30;;
7029;SDS011;3556;53.500;10.176;2023-04-25T12:46:35;5.07;;;1.40;;
7029;SDS011;3556;53.500;10.176;2023-04-25T12:49:01;4.77;;;1.10;;
7029;SDS011;3556;53.500;10.176;2023-04-25T12:51:28;1.73;;;1.20;;
7029;SDS011;3556;53.500;10.176;2023-04-25T12:53:54;3.10;;;1.50;;
7029;SDS011;3556;53.500;10.176;2023-04-25T12:56:19;1.90;;;1.20;;
7029;SDS011;3556;53.500;10.176;2023-04-25T12:58:45;2.30;;;1.33;;
7029;SDS011;3556;53.500;10.176;2023-04-25T13:01:11;5.13;;;1.70;;
7029;SDS011;3556;53.500;10.176;2023-04-25T13:03:38;1.33;;;1.23;;
7029;SDS011;3556;53.500;10.176;2023-04-25T13:06:04;3.00;;;2.00;;
7029;SDS011;3556;53.500;10.176;2023-04-25T13:08:30;5.33;;;1.50;;
7029;SDS011;3556;53.500;10.176;2023-04-25T13:10:56;3.53;;;1.37;;
7029;SDS011;3556;53.500;10.176;2023-04-25T13:13:21;6.20;;;1.60;;
7029;SDS011;3556;53.500;10.176;2023-04-25T13:15:47;3.00;;;1.40;;
7029;SDS011;3556;53.500;10.176;2023-04-25T13:18:13;3.07;;;1.70;;
7029;SDS011;3556;53.500;10.176;2023-04-25T13:20:38;7.07;;;1.73;;
7029;SDS011;3556;53.500;10.176;2023-04-25T13:23:04;1.70;;;1.50;;
7029;SDS011;3556;53.500;10.176;2023-04-25T13:25:29;14.77;;;1.80;;
7029;SDS011;3556;53.500;10.176;2023-04-25T13:27:55;6.63;;;1.63;;
7029;SDS011;3556;53.500;10.176;2023-04-25T13:30:21;7.80;;;1.40;;
7029;SDS011;3556;53.500;10.176;2023-04-25T13:32:46;4.97;;;1.30;;
7029;SDS011;3556;53.500;10.176;2023-04-25T13:35:12;5.93;;;1.23;;
7029;SDS011;3556;53.500;10.176;2023-04-25T13:37:41;3.73;;;1.67;;
7029;SDS011;3556;53.500;10.176;2023-04-25T13:40:09;7.43;;;2.10;;
7029;SDS011;3556;53.500;10.176;2023-04-25T13:42:36;3.20;;;1.23;;
7029;SDS011;3556;53.500;10.176;2023-04-25T13:45:02;5.27;;;1.33;;
7029;SDS011;3556;53.500;10.176;2023-04-25T13:47:28;2.23;;;1.60;;
7029;SDS011;3556;53.500;10.176;2023-04-25T13:49:55;3.77;;;2.17;;
7029;SDS011;3556;53.500;10.176;2023-04-25T13:52:20;3.03;;;1.50;;
7029;SDS011;3556;53.500;10.176;2023-04-25T13:54:46;8.13;;;1.70;;
7029;SDS011;3556;53.500;10.176;2023-04-25T13:57:12;6.20;;;1.50;;
7029;SDS011;3556;53.500;10.176;2023-04-25T13:59:38;3.10;;;1.67;;
7029;SDS011;3556;53.500;10.176;2023-04-25T14:02:04;3.37;;;1.50;;
7029;SDS011;3556;53.500;10.176;2023-04-25T14:04:30;5.40;;;1.63;;
7029;SDS011;3556;53.500;10.176;2023-04-25T14:06:55;3.03;;;2.00;;
7029;SDS011;3556;53.500;10.176;2023-04-25T14:09:21;3.23;;;1.50;;
7029;SDS011;3556;53.500;10.176;2023-04-25T14:11:51;2.43;;;1.57;;
7029;SDS011;3556;53.500;10.176;2023-04-25T14:14:17;5.33;;;2.03;;
7029;SDS011;3556;53.500;10.176;2023-04-25T14:16:43;2.60;;;1.40;;
7029;SDS011;3556;53.500;10.176;2023-04-25T14:19:09;3.37;;;1.50;;
7029;SDS011;3556;53.500;10.176;2023-04-25T14:21:35;1.53;;;1.43;;
7029;SDS011;3556;53.500;10.176;2023-04-25T14:24:00;4.10;;;1.40;;
7029;SDS011;3556;53.500;10.176;2023-04-25T14:26:26;7.10;;;2.10;;
7029;SDS011;3556;53.500;10.176;2023-04-25T14:28:51;12.13;;;2.50;;
7029;SDS011;3556;53.500;10.176;2023-04-25T14:31:17;6.03;;;2.27;;
7029;SDS011;3556;53.500;10.176;2023-04-25T14:33:43;5.07;;;1.60;;
7029;SDS011;3556;53.500;10.176;2023-04-25T14:36:09;5.97;;;2.37;;
7029;SDS011;3556;53.500;10.176;2023-04-25T14:38:36;4.83;;;2.00;;
7029;SDS011;3556;53.500;10.176;2023-04-25T14:41:01;4.97;;;1.73;;
7029;SDS011;3556;53.500;10.176;2023-04-25T14:43:27;9.90;;;2.07;;
7029;SDS011;3556;53.500;10.176;2023-04-25T14:45:53;10.03;;;1.83;;
7029;SDS011;3556;53.500;10.176;2023-04-25T14:48:18;13.13;;;1.80;;
7029;SDS011;3556;53.500;10.176;2023-04-25T14:50:45;9.03;;;2.27;;
7029;SDS011;3556;53.500;10.176;2023-04-25T14:53:11;11.80;;;1.73;;
7029;SDS011;3556;53.500;10.176;2023-04-25T14:55:37;6.70;;;1.93;;
7029;SDS011;3556;53.500;10.176;2023-04-25T14:58:02;6.97;;;1.80;;
7029;SDS011;3556;53.500;10.176;2023-04-25T15:00:28;7.03;;;1.70;;
7029;SDS011;3556;53.500;10.176;2023-04-25T15:02:55;8.20;;;1.80;;
7029;SDS011;3556;53.500;10.176;2023-04-25T15:05:21;2.90;;;1.40;;
7029;SDS011;3556;53.500;10.176;2023-04-25T15:07:47;4.77;;;1.80;;
7029;SDS011;3556;53.500;10.176;2023-04-25T15:10:13;4.73;;;1.80;;
7029;SDS011;3556;53.500;10.176;2023-04-25T15:12:40;5.00;;;1.70;;
7029;SDS011;3556;53.500;10.176;2023-04-25T15:15:07;8.30;;;1.90;;
7029;SDS011;3556;53.500;10.176;2023-04-25T15:17:43;1.53;;;1.43;;
7029;SDS011;3556;53.500;10.176;2023-04-25T15:20:10;8.27;;;1.57;;
7029;SDS011;3556;53.500;10.176;2023-04-25T15:22:38;10.57;;;1.80;;
7029;SDS011;3556;53.500;10.176;2023-04-25T15:25:05;1.53;;;1.23;;
7029;SDS011;3556;53.500;10.176;2023-04-25T15:27:32;2.10;;;1.30;;
7029;SDS011;3556;53.500;10.176;2023-04-25T15:30:03;4.53;;;1.63;;